Portada
METAR-TAF:

METAR-TAF

Aeroports :

Viña del Mar, Xile

latitud: 32-56-59S, longitud: 71-28-43W, altitud: 141 m

Observació

L'informe es va fer fa 19 minuts, a les 14:00 UTC
Vent 4 kt del Nord/Nord-Oest
Temperatura 17°C
Humitat 77%
Pressió 1015 hPa
Visibilitat 10 km o més
sense núvols per sota de 1500 mi sense presència de cumulonimbus.

METAR: SCVM 301400Z 34004KT CAVOK 17/13 Q1015

Hora: 11:19 (14:19 UTC)

Pronòstic

L'informe es va fer fa 3 hores i 47 minuts, a les 10:32 UTC
Pronòstic vàlid del 30 a les 12 UTC al 31 a les 12 UTC
Vent 4 kt del Oest/Nord-Oest
Visibilitat 10 km o més
sense núvols per sota de 1500 mi sense presència de cumulonimbus.
Temporalment
l' 30 a les 12 UTC al 30 a les 15 UTC
Cel ennuvolat a una alçada de 1000 ft
Evolucionant progressivament
l' 30 a les 01 UTC al 30 a les 03 UTC
Vent 10 kt del Oest/Nord-Oest

TAF: SCVM 301032Z 3012/3112 30004KT CAVOK TX24/3018Z TN13/3111Z TEMPO 3012/3015 BKN010 BECMG 3001/3003 29010KT

Observacions i pronòstics meteorològics de més de 4000 aeroports (METAR i TAF).

Les estacions disponibles són els punts grocs i vermells al mapa.

Posi el ratolí al punt desitjat per veure el nom de l'estació.

Feu clic per veure les observacions i els pronòstics meteorològics.

Per canviar el mapa: feu clic els botons verds amb una creu de color negre per apropar; al botó verd amb un guió per allunyar la imatge; o en les fletxes verdes per a mapes adjacents.


METAR-TAF: